Westville, Connecticut
Current Conditions -  °F | °C
As of 4:58 PM on Sunday 21 Dec 2014 (Local Time) from KHVN Reporting Station
Haze Haze  
Wind Chill: -1°   Ceiling: 600
Heat Index:   Visibility: 2mi
Dew Point: -1°   Wind: 8mph
Humidity: 82%   Direction: 350°N
Pressure: 30.3"   Gusts: NA
Location:  41.3258°N, 72.9705°W
Report Text: KHVN 212158Z 35007KT 2SM BR BKN006 BKN010 OVC023 02/M01 A3030 RMK AO2 T00221006
Loading
Personal Weather Stations






























Interactive Weather Map New forecast layout! Learn more

10-Day Weather Forecast

Advertisements
Track Severe Weather on mobile